Time;durP1;ratioP1;P1;durP2;ratioP2;P2;SDS_P1;SDS_P2;PMS_P1;PMS_P2;Temp;Humidity;BMP_temperature;BMP_pressure;BME280_temperature;BME280_humidity;BME280_pressure;Samples;Min_cycle;Max_cycle;Signal;HPM_P1;HPM_P2
2021/01/03 00:05:53;;;;;;;1999.90;999.90;;;;;;;2.15;76.27;101170.47;15865623;28;20410;-60
2021/01/03 00:13:26;;;;;;;1999.90;999.90;;;;;;;2.17;76.40;101189.47;15873885;28;20044;-60
2021/01/03 00:20:59;;;;;;;1999.90;999.90;;;;;;;2.01;77.43;101172.88;15872784;28;20047;-61
2021/01/03 00:28:32;;;;;;;;;;;;;;;2.22;77.11;101167.50;15853970;28;20052;-60
2021/01/03 00:36:08;;;;;;;1999.90;999.90;;;;;;;2.39;76.40;101153.50;15871217;28;19919;-58
2021/01/03 00:43:41;;;;;;;1999.90;999.90;;;;;;;2.33;76.50;101151.84;15870758;28;20055;-60
2021/01/03 00:51:14;;;;;;;1999.90;999.90;;;;;;;2.54;76.28;101128.81;15835018;28;20399;-60
2021/01/03 00:58:47;;;;;;;1999.90;999.90;;;;;;;2.52;75.85;101123.56;15861896;28;20043;-60
2021/01/03 01:06:20;;;;;;;1999.90;999.90;;;;;;;2.59;75.72;101115.88;15851496;28;20393;-61
2021/01/03 01:13:53;;;;;;;1999.90;999.90;;;;;;;2.67;75.37;101128.28;15869255;28;20047;-61
2021/01/03 01:21:26;;;;;;;1999.90;999.90;;;;;;;2.72;74.67;101127.50;15849466;28;20059;-61
2021/01/03 01:28:59;;;;;;;1999.90;999.90;;;;;;;2.81;74.37;101131.38;15868325;28;20561;-60
2021/01/03 01:36:32;;;;;;;1999.90;999.90;;;;;;;3.03;73.68;101115.44;15867544;28;20370;-61
2021/01/03 01:44:05;;;;;;;1999.90;999.90;;;;;;;3.00;73.35;101102.19;15848840;28;20047;-61
2021/01/03 01:51:42;;;;;;;1999.90;999.90;;;;;;;3.02;73.23;101102.78;15848833;28;20040;-61
2021/01/03 01:59:20;;;;;;;1999.90;999.90;;;;;;;3.02;71.84;101110.19;15866085;28;20542;-61
2021/01/03 02:07:01;;;;;;;1999.90;999.90;;;;;;;3.12;70.97;101085.38;15866337;28;20488;-60
2021/01/03 02:14:33;;;;;;;1999.90;999.90;;;;;;;3.06;71.17;101087.31;15865654;28;20043;-61
2021/01/03 02:22:15;;;;;;;1999.90;999.90;;;;;;;3.15;70.53;101095.88;15865134;28;20103;-60
2021/01/03 02:29:51;;;;;;;1999.90;999.90;;;;;;;2.85;71.47;101093.91;15864469;28;20044;-59
2021/01/03 02:37:27;;;;;;;1999.90;999.90;;;;;;;2.92;70.91;101094.47;15863845;28;20376;-61
2021/01/03 02:45:03;;;;;;;1999.90;999.90;;;;;;;2.96;70.12;101092.81;15863658;28;20108;-60
2021/01/03 02:52:37;;;;;;;1999.90;999.90;;;;;;;2.98;70.27;101090.63;15863619;28;20043;-60
2021/01/03 03:00:16;;;;;;;1999.90;999.90;;;;;;;2.91;70.68;101068.00;15863139;28;20532;-60
2021/01/03 03:07:50;;;;;;;1999.90;999.90;;;;;;;2.92;70.71;101077.09;15862978;28;20051;-59
2021/01/03 03:15:27;;;;;;;1999.90;999.90;;;;;;;3.05;70.36;101071.06;15862746;28;20035;-61
2021/01/03 03:23:00;;;;;;;1999.90;999.90;;;;;;;3.05;70.03;101073.81;15844586;28;20044;-59
2021/01/03 03:30:33;;;;;;;1999.90;999.90;;;;;;;2.93;70.43;101067.75;15843943;28;20047;-60
2021/01/03 03:38:08;;;;;;;1999.90;999.90;;;;;;;3.06;70.27;101058.94;15861840;28;20040;-61
2021/01/03 03:45:41;;;;;;;1999.90;999.90;;;;;;;2.87;70.43;101053.94;15874563;28;20047;-58
2021/01/03 03:53:14;;;;;;;1999.90;999.90;;;;;;;3.17;69.19;101055.06;15856671;28;20039;-61
2021/01/03 04:00:48;;;;;;;1999.90;999.90;;;;;;;3.10;69.30;101037.97;15872976;28;20094;-61
2021/01/03 04:08:20;;;;;;;;;;;;;;;3.26;68.91;101036.88;15872978;28;20035;-61
2021/01/03 04:15:55;;;;;;;1999.90;999.90;;;;;;;3.11;69.01;101045.13;15855139;28;19958;-58
2021/01/03 04:23:28;;;;;;;1999.90;999.90;;;;;;;3.15;68.63;101038.81;15853778;28;20078;-59
2021/01/03 04:31:02;;;;;;;1999.90;999.90;;;;;;;3.17;68.46;101033.84;15872266;28;20043;-59
2021/01/03 04:38:34;;;;;;;;;;;;;;;3.47;67.71;101033.00;15872166;28;20421;-57
2021/01/03 04:46:12;;;;;;;1999.90;999.90;;;;;;;3.35;67.69;101034.38;15871242;28;20364;-61
2021/01/03 04:53:55;;;;;;;1999.90;999.90;;;;;;;3.41;68.20;101039.59;15870072;28;20500;-56
2021/01/03 05:02:05;;;;;;;1999.90;999.90;;;;;;;3.33;68.35;101031.06;15869443;28;20039;-60
2021/01/03 05:09:38;;;;;;;1999.90;999.90;;;;;;;3.15;70.04;101016.75;15851494;28;20040;-56
2021/01/03 05:17:11;;;;;;;1999.90;999.90;;;;;;;2.95;71.40;101026.94;15851535;28;20044;-55
2021/01/03 05:24:45;;;;;;;1999.90;999.90;;;;;;;3.09;72.09;101011.50;15868978;28;20135;-55
2021/01/03 05:32:33;;;;;;;1999.90;999.90;;;;;;;2.88;73.97;101011.47;15852721;28;20139;-54
2021/01/03 05:40:19;;;;;;;1999.90;999.90;;;;;;;2.90;73.92;100997.41;15868269;28;20040;-54
2021/01/03 05:47:57;;;;;;;1999.90;999.90;;;;;;;2.77;75.47;100996.03;15849122;28;20047;-54
2021/01/03 05:55:30;;;;;;;1999.90;999.90;;;;;;;2.60;76.24;100984.44;15849358;28;20105;-54
2021/01/03 06:03:25;;;;;;;1999.90;999.90;;;;;;;2.68;76.62;100992.19;15847102;28;20421;-56
2021/01/03 06:11:12;;;;;;;1999.90;999.90;;;;;;;2.54;77.25;100983.63;15847804;28;20047;-54
2021/01/03 06:18:48;;;;;;;1999.90;999.90;;;;;;;2.51;77.38;100986.09;15847123;28;20468;-55
2021/01/03 06:26:28;;;;;;;1999.90;999.90;;;;;;;2.65;77.61;100981.72;15866278;28;20339;-61
2021/01/03 06:34:12;;;;;;;1999.90;999.90;;;;;;;2.38;78.51;100986.59;15866119;28;20116;-55
2021/01/03 06:41:53;;;;;;;1999.90;999.90;;;;;;;2.52;78.82;100982.25;15864911;28;20068;-57
2021/01/03 06:49:50;;;;;;;1999.90;999.90;;;;;;;2.60;78.64;100985.28;15864390;28;20328;-59
2021/01/03 06:57:52;;;;;;;1999.90;999.90;;;;;;;2.62;78.76;100976.75;15864433;28;20407;-58
2021/01/03 07:05:24;;;;;;;1999.90;999.90;;;;;;;2.51;78.88;100994.38;15862710;28;20051;-55
2021/01/03 07:12:58;;;;;;;1999.90;999.90;;;;;;;2.46;79.26;100994.34;15862619;28;20101;-57
2021/01/03 07:20:31;;;;;;;;;;;;;;;2.66;78.42;101010.91;15863111;28;20532;-56
2021/01/03 07:28:11;;;;;;;;;;;;;;;2.64;78.83;101021.38;15864059;28;20471;-56
2021/01/03 07:35:44;;;;;;;1999.90;999.90;;;;;;;2.50;79.29;101006.47;15863342;28;20348;-55
2021/01/03 07:43:18;;;;;;;1999.90;999.90;;;;;;;2.63;78.92;101011.47;15864774;28;20043;-55
2021/01/03 07:50:52;;;;;;;1999.90;999.90;;;;;;;2.65;79.15;101009.25;15862284;28;20453;-55
2021/01/03 07:58:26;;;;;;;1999.90;999.90;;;;;;;2.68;79.24;101018.91;15862079;28;20165;-58
2021/01/03 08:06:05;;;;;;;1999.90;999.90;;;;;;;2.57;79.46;101010.63;15862143;28;20346;-56
2021/01/03 08:13:43;;;;;;;1999.90;999.90;;;;;;;2.66;79.58;101002.66;15862461;28;20048;-56
2021/01/03 08:21:19;;;;;;;1999.90;999.90;;;;;;;2.59;79.82;100993.81;15844789;28;20369;-56
2021/01/03 08:28:58;;;;;;;1999.90;999.90;;;;;;;2.52;80.33;100990.50;15852364;28;20508;-56
2021/01/03 08:36:34;;;;;;;1999.90;999.90;;;;;;;2.56;80.26;100995.19;15873984;28;20055;-55
2021/01/03 08:44:08;;;;;;;1999.90;999.90;;;;;;;2.41;80.60;100981.41;15873049;28;20044;-60
2021/01/03 08:51:40;;;;;;;;;;;;;;;2.63;80.61;100989.44;15872233;28;20092;-55
2021/01/03 08:59:15;;;;;;;1999.90;999.90;;;;;;;2.65;80.38;100987.22;15870974;28;20308;-60
2021/01/03 09:06:52;;;;;;;1999.90;999.90;;;;;;;2.57;80.54;100980.31;15853817;28;20042;-57
2021/01/03 09:14:33;;;;;;;1999.90;999.90;;;;;;;2.65;80.46;100991.91;15873018;28;20108;-58
2021/01/03 09:22:05;;;;;;;1999.90;999.90;;;;;;;2.44;81.10;100993.78;15871025;28;20051;-60
2021/01/03 09:29:41;;;;;;;1999.90;999.90;;;;;;;2.38;81.07;100997.63;15851834;28;20044;-55
2021/01/03 09:37:22;;;;;;;1999.90;999.90;;;;;;;2.53;80.80;100995.75;15859331;28;20063;-56
2021/01/03 09:45:04;;;;;;;1999.90;999.90;;;;;;;2.46;81.10;101002.59;15871352;28;20381;-59
2021/01/03 09:52:44;;;;;;;1999.90;999.90;;;;;;;2.40;81.54;100996.28;15868470;28;20353;-58
2021/01/03 10:00:22;;;;;;;1999.90;999.90;;;;;;;2.40;81.53;100996.28;15849182;28;20482;-61
2021/01/03 10:07:58;;;;;;;1999.90;999.90;;;;;;;2.45;81.45;100995.44;15867244;28;20056;-60
2021/01/03 10:15:32;;;;;;;1999.90;999.90;;;;;;;2.39;81.44;100983.56;15866721;28;20123;-60
2021/01/03 10:23:06;;;;;;;1999.90;999.90;;;;;;;2.42;81.28;100979.47;15848149;28;20038;-61
2021/01/03 10:30:41;;;;;;;1999.90;999.90;;;;;;;2.49;81.05;100974.50;15864938;28;20123;-58
2021/01/03 10:38:14;;;;;;;1999.90;999.90;;;;;;;2.40;81.86;100973.38;15863985;28;20043;-59
2021/01/03 10:45:47;;;;;;;1999.90;999.90;;;;;;;2.39;81.40;100967.06;15864233;28;20047;-60
2021/01/03 10:53:20;;;;;;;;;;;;;;;2.43;81.16;100957.16;15863516;28;20512;-57
2021/01/03 11:00:56;;;;;;;1999.90;999.90;;;;;;;2.46;81.47;100955.78;15846044;28;19983;-59
2021/01/03 11:08:29;;;;;;;1999.90;999.90;;;;;;;2.26;81.70;100948.31;15862887;28;20122;-59
2021/01/03 11:16:02;;;;;;;1999.90;999.90;;;;;;;2.49;81.36;100939.53;15862504;28;20043;-58
2021/01/03 11:23:35;;;;;;;1999.90;999.90;;;;;;;2.70;80.67;100942.28;15863129;28;20035;-59
2021/01/03 11:31:09;;;;;;;1999.90;999.90;;;;;;;2.58;81.08;100945.31;15844161;28;20341;-59
2021/01/03 11:38:41;;;;;;;1999.90;999.90;;;;;;;2.51;81.21;100936.53;15843836;28;20509;-57
2021/01/03 11:46:15;;;;;;;1999.90;999.90;;;;;;;2.44;81.39;100936.78;15862200;28;20044;-60
2021/01/03 11:53:47;;;;;;;1999.90;999.90;;;;;;;2.74;80.85;100941.50;15861470;28;20442;-59
2021/01/03 12:01:23;;;;;;;1999.90;999.90;;;;;;;2.88;80.19;100942.56;15846217;28;20568;-61
2021/01/03 12:08:56;;;;;;;1999.90;999.90;;;;;;;2.95;79.78;100939.56;15874979;28;20044;-61
2021/01/03 12:16:31;;;;;;;1999.90;999.90;;;;;;;2.83;80.40;100939.84;15873958;28;20052;-61
2021/01/03 12:24:04;;;;;;;1999.90;999.90;;;;;;;2.60;81.12;100943.13;15872347;28;20039;-61
2021/01/03 12:31:41;;;;;;;1999.90;999.90;;;;;;;2.68;81.49;100936.25;15854186;28;20061;-61
2021/01/03 12:39:15;;;;;;;1999.90;999.90;;;;;;;2.79;80.62;100938.72;15854112;28;20142;-59
2021/01/03 12:46:49;;;;;;;1999.90;999.90;;;;;;;2.78;80.75;100945.34;15871997;28;20048;-60
2021/01/03 12:54:22;;;;;;;1999.90;999.90;;;;;;;2.78;80.95;100945.34;15872128;28;20043;-61
2021/01/03 13:01:56;;;;;;;1999.90;999.90;;;;;;;2.81;81.03;100953.06;15871284;28;20369;-60
2021/01/03 13:09:29;;;;;;;;;;;;;;;2.75;80.88;100942.31;15852468;28;20524;-60
2021/01/03 13:17:03;;;;;;;1999.90;999.90;;;;;;;2.80;80.59;100945.06;15869479;28;20272;-62
2021/01/03 13:24:37;;;;;;;1999.90;999.90;;;;;;;2.53;81.48;100939.81;15851384;28;20142;-61
2021/01/03 13:32:11;;;;;;;1999.90;999.90;;;;;;;2.56;81.71;100950.28;15868480;28;20126;-61
2021/01/03 13:39:44;;;;;;;1999.90;999.90;;;;;;;2.60;81.50;100952.22;15867526;28;20062;-60
2021/01/03 13:47:17;;;;;;;1999.90;999.90;;;;;;;2.55;81.80;100954.16;15849714;28;20119;-61
2021/01/03 13:54:50;;;;;;;1999.90;999.90;;;;;;;2.77;80.66;100949.19;15867558;28;20055;-60
2021/01/03 14:02:23;;;;;;;1999.90;999.90;;;;;;;2.50;81.96;100946.72;15866995;28;20489;-60
2021/01/03 14:09:56;;;;;;;1999.90;999.90;;;;;;;2.62;81.51;100951.13;15847580;28;20416;-60
2021/01/03 14:17:29;;;;;;;1999.90;999.90;;;;;;;2.59;81.57;100955.25;15846687;28;20047;-60
2021/01/03 14:25:04;;;;;;;1999.90;999.90;;;;;;;2.73;80.89;100961.88;15863630;28;20413;-60
2021/01/03 14:32:37;;;;;;;1999.90;999.90;;;;;;;2.91;80.80;100960.47;15864665;28;20039;-60
2021/01/03 14:40:19;;;;;;;1999.90;999.90;;;;;;;3.03;80.29;100972.09;15844493;28;20052;-58
2021/01/03 14:48:01;;;;;;;1999.90;999.90;;;;;;;2.87;80.54;100962.16;15862454;28;20046;-61
2021/01/03 14:55:51;;;;;;;1999.90;999.90;;;;;;;2.84;80.82;100977.31;15863829;28;20047;-56
2021/01/03 15:03:44;;;;;;;1999.90;999.90;;;;;;;3.02;80.71;100973.19;15863796;28;20094;-61
2021/01/03 15:11:17;;;;;;;1999.90;999.90;;;;;;;2.79;80.92;100980.06;15845001;28;20405;-61
2021/01/03 15:18:59;;;;;;;1999.90;999.90;;;;;;;2.88;80.99;100977.59;15862423;28;20044;-60
2021/01/03 15:26:39;;;;;;;1999.90;999.90;;;;;;;2.77;81.14;100993.28;15842550;28;20063;-60
2021/01/03 15:34:16;;;;;;;1999.90;999.90;;;;;;;2.72;81.52;100998.81;15863804;28;20039;-61
2021/01/03 15:41:55;;;;;;;1999.90;999.90;;;;;;;2.83;80.86;101003.22;15864596;28;20353;-60
2021/01/03 15:49:31;;;;;;;1999.90;999.90;;;;;;;2.86;80.84;101010.13;15864786;28;20091;-59
2021/01/03 15:57:06;;;;;;;1999.90;999.90;;;;;;;2.72;81.71;101004.31;15881453;28;20216;-61
2021/01/03 16:04:39;;;;;;;1999.90;999.90;;;;;;;2.76;81.44;101004.59;15862226;28;20482;-61
2021/01/03 16:12:12;;;;;;;1999.90;999.90;;;;;;;2.76;81.43;101010.94;15858970;28;20028;-60
2021/01/03 16:19:48;;;;;;;1999.90;999.90;;;;;;;2.78;81.25;101018.91;15879993;28;20114;-61
2021/01/03 16:27:29;;;;;;;1999.90;999.90;;;;;;;2.90;81.02;101019.47;15895299;27;20047;-60
2021/01/03 16:35:18;;;;;;;1999.90;999.90;;;;;;;2.80;81.41;101020.28;15882037;28;20126;-60
2021/01/03 16:43:03;;;;;;;1999.90;999.90;;;;;;;2.89;81.10;101037.94;15874094;28;20126;-61
2021/01/03 16:50:43;;;;;;;1999.90;999.90;;;;;;;2.66;81.41;101034.88;15872924;28;20043;-62
2021/01/03 16:58:30;;;;;;;1999.90;999.90;;;;;;;2.74;81.24;101051.72;15871055;28;20158;-61
2021/01/03 17:06:12;;;;;;;1999.90;999.90;;;;;;;2.79;81.11;101037.94;15868476;28;20135;-61
2021/01/03 17:13:56;;;;;;;1999.90;999.90;;;;;;;2.57;81.74;101059.38;15816051;28;20047;-61
2021/01/03 17:21:49;;;;;;;1999.90;999.90;;;;;;;2.78;81.38;101063.84;15869620;28;20508;-60
2021/01/03 17:29:37;;;;;;;1999.90;999.90;;;;;;;2.67;81.95;101056.66;15867888;28;20044;-62
2021/01/03 17:37:23;;;;;;;1999.90;999.90;;;;;;;2.68;81.53;101065.75;15864613;27;20788;-61
2021/01/03 17:44:59;;;;;;;1999.90;999.90;;;;;;;2.77;81.21;101064.13;15868191;27;20035;-60
2021/01/03 17:52:36;;;;;;;1999.90;999.90;;;;;;;2.66;81.03;101068.78;15840129;27;20032;-61
2021/01/03 18:00:10;;;;;;;1999.90;999.90;;;;;;;2.75;81.09;101078.16;15879497;27;20111;-60
2021/01/03 18:07:44;;;;;;;1999.90;999.90;;;;;;;2.67;81.30;101080.63;15861305;27;20224;-62
2021/01/03 18:15:18;;;;;;;1999.90;999.90;;;;;;;2.57;81.83;101084.19;15861151;28;20038;-58
2021/01/03 18:22:52;;;;;;;1999.90;999.90;;;;;;;2.87;80.59;101094.44;15841765;28;20127;-59
2021/01/03 18:30:28;;;;;;;1999.90;999.90;;;;;;;2.96;80.64;101094.75;15859881;27;20499;-61
2021/01/03 18:38:02;;;;;;;1999.90;999.90;;;;;;;2.78;80.88;101087.81;15862708;27;20047;-64
2021/01/03 18:45:34;;;;;;;1999.90;999.90;;;;;;;2.85;81.04;101105.75;15860780;28;20511;-64
2021/01/03 18:53:08;;;;;;;1999.90;999.90;;;;;;;2.75;81.50;101102.97;15834339;27;20066;-63
2021/01/03 19:00:40;;;;;;;;;;;;;;;2.79;81.54;101103.25;15841989;28;20043;-61
2021/01/03 19:08:14;;;;;;;1999.90;999.90;;;;;;;2.80;81.15;101111.25;15858615;27;20300;-63
2021/01/03 19:15:46;;;;;;;;;;;;;;;2.94;80.76;101102.47;15867810;27;20056;-63
2021/01/03 19:23:20;;;;;;;1999.90;999.90;;;;;;;2.75;81.30;101113.16;15860616;28;19919;-62
2021/01/03 19:30:53;;;;;;;1999.90;999.90;;;;;;;2.70;81.59;101110.38;15859484;28;20094;-64
2021/01/03 19:38:28;;;;;;;1999.90;999.90;;;;;;;2.73;81.49;101115.38;15842127;28;20036;-63
2021/01/03 19:46:01;;;;;;;1999.90;999.90;;;;;;;2.79;81.37;101123.38;15859493;28;20131;-62
2021/01/03 19:53:35;;;;;;;;;;;;;;;2.89;81.08;101128.91;15860008;28;20433;-64
2021/01/03 20:01:07;;;;;;;1999.90;999.90;;;;;;;2.68;82.11;101124.44;15841146;28;19920;-61
2021/01/03 20:08:41;;;;;;;1999.90;999.90;;;;;;;2.80;81.60;101132.47;15838762;28;20477;-61
2021/01/03 20:16:15;;;;;;;1999.90;999.90;;;;;;;2.82;81.72;101144.91;15890448;28;20541;-62
2021/01/03 20:23:48;;;;;;;;;;;;;;;2.89;81.24;101148.22;15873950;28;20408;-62
2021/01/03 20:31:24;;;;;;;1999.90;999.90;;;;;;;2.96;81.21;101155.41;15852246;28;20010;-62
2021/01/03 20:38:57;;;;;;;1999.90;999.90;;;;;;;2.81;81.19;101156.16;15853109;27;20382;-64
2021/01/03 20:46:30;;;;;;;1999.90;999.90;;;;;;;2.92;80.89;101152.38;15868503;28;20066;-62
2021/01/03 20:54:04;;;;;;;1999.90;999.90;;;;;;;3.06;80.92;101160.94;15868993;28;20043;-64
2021/01/03 21:01:39;;;;;;;1999.90;999.90;;;;;;;3.00;80.53;101168.38;15869238;28;20055;-62
2021/01/03 21:09:13;;;;;;;;;;;;;;;3.01;80.66;101161.75;15869122;28;20135;-62
2021/01/03 21:16:46;;;;;;;1999.90;999.90;;;;;;;2.97;80.69;101166.16;15869118;28;20030;-63
2021/01/03 21:24:22;;;;;;;1999.90;999.90;;;;;;;2.85;81.34;101177.44;15848619;28;20043;-64
2021/01/03 21:32:01;;;;;;;1999.90;999.90;;;;;;;2.98;80.49;101189.03;15867771;28;20122;-64
2021/01/03 21:40:03;;;;;;;1999.90;999.90;;;;;;;2.90;80.98;101185.69;15865379;28;20051;-62
2021/01/03 21:47:45;;;;;;;1999.90;999.90;;;;;;;2.75;81.52;101176.56;15879345;28;20050;-63
2021/01/03 21:55:28;;;;;;;1999.90;999.90;;;;;;;2.95;81.14;101175.81;15851377;28;20493;-63
2021/01/03 22:03:46;;;;;;;1999.90;999.90;;;;;;;2.94;81.12;101182.41;15822662;28;20484;-63
2021/01/03 22:11:49;;;;;;;1999.90;999.90;;;;;;;3.04;80.87;101183.28;15865004;28;20046;-62
2021/01/03 22:19:30;;;;;;;;;;;;;;;3.08;80.73;101186.31;15863885;28;20043;-61
2021/01/03 22:27:18;;;;;;;1999.90;999.90;;;;;;;2.93;81.01;101194.56;15823597;28;19959;-63
2021/01/03 22:35:10;;;;;;;1999.90;999.90;;;;;;;3.04;80.49;101188.78;15863765;28;20050;-63
2021/01/03 22:42:57;;;;;;;1999.90;999.90;;;;;;;2.94;80.83;101186.00;15823826;28;20354;-61
2021/01/03 22:50:50;;;;;;;1999.90;999.90;;;;;;;3.10;80.42;101187.69;15833029;28;20528;-61
2021/01/03 22:58:45;;;;;;;1999.90;999.90;;;;;;;3.14;80.24;101188.81;15863784;28;20051;-61
2021/01/03 23:06:40;;;;;;;1999.90;999.90;;;;;;;3.08;80.56;101167.00;15862753;28;20050;-64
2021/01/03 23:14:18;;;;;;;1999.90;999.90;;;;;;;3.10;80.69;101182.19;15861601;28;20047;-62
2021/01/03 23:21:52;;;;;;;1999.90;999.90;;;;;;;3.20;80.13;101181.38;15861992;28;20047;-61
2021/01/03 23:29:27;;;;;;;1999.90;999.90;;;;;;;3.22;79.85;101170.88;15842785;28;20036;-63
2021/01/03 23:37:02;;;;;;;1999.90;999.90;;;;;;;3.11;80.25;101183.00;15860583;28;20101;-61
2021/01/03 23:44:42;;;;;;;1999.90;999.90;;;;;;;3.28;80.58;101177.25;15861740;28;20039;-61
2021/01/03 23:52:39;;;;;;;1999.90;999.90;;;;;;;3.27;79.60;101176.44;15862186;28;20159;-62
